createdAt,value
2018-02-17T00:00:28.533Z,25.30
2018-02-17T00:02:56.144Z,27.90
2018-02-17T00:05:24.553Z,27.67
2018-02-17T00:07:52.247Z,30.47
2018-02-17T00:10:20.652Z,27.75
2018-02-17T00:12:48.357Z,31.55
2018-02-17T00:15:15.912Z,26.62
2018-02-17T00:17:44.330Z,31.50
2018-02-17T00:20:11.934Z,27.05
2018-02-17T00:22:39.502Z,29.85
2018-02-17T00:25:07.400Z,31.62
2018-02-17T00:27:34.984Z,35.38
2018-02-17T00:30:02.588Z,27.92
2018-02-17T00:32:31.861Z,40.42
2018-02-17T00:35:00.143Z,23.35
2018-02-17T00:37:28.495Z,44.20
2018-02-17T00:39:56.922Z,34.45
2018-02-17T00:42:24.652Z,34.63
2018-02-17T00:44:52.289Z,36.67
2018-02-17T00:47:19.872Z,26.52
2018-02-17T00:49:47.453Z,33.22
2018-02-17T00:52:15.873Z,35.17
2018-02-17T00:54:43.447Z,29.55
2018-02-17T00:57:11.066Z,36.90
2018-02-17T00:59:38.696Z,29.77
2018-02-17T01:02:06.451Z,32.28
2018-02-17T01:04:34.085Z,32.20
2018-02-17T01:07:02.547Z,36.25
2018-02-17T01:09:31.440Z,27.98
2018-02-17T01:11:59.060Z,29.48
2018-02-17T01:14:26.656Z,33.95
2018-02-17T01:16:54.247Z,27.20
2018-02-17T01:19:21.814Z,40.47
2018-02-17T01:21:50.262Z,29.02
2018-02-17T01:24:17.830Z,33.28
2018-02-17T01:26:45.414Z,33.40
2018-02-17T01:29:13.062Z,40.80
2018-02-17T01:31:40.677Z,39.25
2018-02-17T01:34:08.347Z,32.60
2018-02-17T01:36:35.928Z,35.65
2018-02-17T01:39:05.200Z,32.35
2018-02-17T01:41:32.817Z,34.08
2018-02-17T01:44:01.248Z,32.72
2018-02-17T01:46:28.801Z,29.77
2018-02-17T01:48:56.429Z,32.33
2018-02-17T01:51:24.021Z,35.40
2018-02-17T01:53:51.639Z,24.27
2018-02-17T01:56:19.272Z,25.77
2018-02-17T01:58:46.988Z,32.97
2018-02-17T02:01:14.560Z,30.85
2018-02-17T02:03:42.355Z,37.65
2018-02-17T02:06:09.935Z,32.22
2018-02-17T02:08:37.491Z,34.67
2018-02-17T02:11:05.185Z,31.77
2018-02-17T02:13:32.753Z,39.55
2018-02-17T02:16:01.578Z,35.83
2018-02-17T02:18:29.226Z,32.90
2018-02-17T02:20:56.827Z,33.00
2018-02-17T02:23:26.277Z,28.80
2018-02-17T02:25:54.611Z,35.15
2018-02-17T02:28:22.284Z,33.15
2018-02-17T02:30:50.677Z,32.42
2018-02-17T02:33:18.984Z,25.42
2018-02-17T02:35:46.615Z,28.15
2018-02-17T02:38:14.207Z,36.80
2018-02-17T02:40:42.650Z,29.40
2018-02-17T02:43:10.309Z,24.98
2018-02-17T02:45:39.395Z,29.48
2018-02-17T02:48:06.973Z,31.23
2018-02-17T02:50:35.301Z,23.90
2018-02-17T02:53:02.905Z,28.90
2018-02-17T02:55:31.082Z,29.73
2018-02-17T02:57:58.704Z,32.20
2018-02-17T03:00:26.309Z,30.27
2018-02-17T03:02:54.657Z,31.33
2018-02-17T03:05:22.269Z,29.63
2018-02-17T03:07:49.896Z,31.30
2018-02-17T03:10:17.469Z,33.50
2018-02-17T03:12:45.397Z,31.52
2018-02-17T03:15:13.720Z,29.10
2018-02-17T03:17:42.222Z,32.88
2018-02-17T03:20:09.826Z,30.50
2018-02-17T03:22:37.473Z,29.55
2018-02-17T03:25:05.825Z,31.05
2018-02-17T03:27:34.157Z,33.28
2018-02-17T03:30:02.148Z,34.22
2018-02-17T03:32:31.004Z,33.25
2018-02-17T03:34:58.591Z,33.78
2018-02-17T03:37:26.157Z,25.27
2018-02-17T03:39:53.767Z,34.40
2018-02-17T03:42:21.417Z,30.23
2018-02-17T03:44:50.216Z,33.30
2018-02-17T03:47:18.527Z,32.40
2018-02-17T03:49:46.135Z,28.83
2018-02-17T03:52:14.495Z,28.38
2018-02-17T03:54:42.062Z,29.77
2018-02-17T03:57:09.632Z,24.75
2018-02-17T03:59:37.162Z,33.33
2018-02-17T04:02:04.766Z,30.65
2018-02-17T04:04:32.331Z,32.50
2018-02-17T04:07:00.678Z,31.55
2018-02-17T04:09:28.283Z,32.97
2018-02-17T04:11:55.841Z,33.25
2018-02-17T04:14:23.451Z,32.50
2018-02-17T04:16:50.989Z,32.28
2018-02-17T04:19:18.580Z,27.40
2018-02-17T04:21:46.918Z,26.05
2018-02-17T04:24:14.480Z,26.40
2018-02-17T04:26:42.148Z,30.95
2018-02-17T04:29:09.731Z,30.00
2018-02-17T04:31:37.315Z,29.02
2018-02-17T04:34:05.064Z,26.83
2018-02-17T04:36:32.682Z,29.50
2018-02-17T04:39:01.101Z,30.85
2018-02-17T04:41:31.037Z,29.83
2018-02-17T04:43:59.272Z,30.48
2018-02-17T04:49:35.079Z,28.65
2018-02-17T04:52:08.341Z,30.17
2018-02-17T04:54:36.485Z,30.77
2018-02-17T04:57:06.727Z,29.80
2018-02-17T05:02:47.635Z,25.60
2018-02-17T05:05:17.036Z,28.90
2018-02-17T05:07:46.512Z,26.73
2018-02-17T05:10:14.077Z,27.40
2018-02-17T05:12:41.678Z,23.30
2018-02-17T05:15:25.720Z,25.85
2018-02-17T05:20:59.450Z,24.30
2018-02-17T05:23:28.814Z,22.17
2018-02-17T05:25:57.923Z,20.92
2018-02-17T05:28:43.052Z,20.37
2018-02-17T05:31:10.672Z,25.90
2018-02-17T05:33:41.254Z,23.38
2018-02-17T05:36:14.364Z,25.30
2018-02-17T05:38:42.670Z,22.20
2018-02-17T05:44:13.501Z,26.58
2018-02-17T05:46:45.677Z,26.40
2018-02-17T05:49:25.879Z,26.35
2018-02-17T05:51:54.210Z,25.55
2018-02-17T05:54:21.747Z,25.00
2018-02-17T05:56:49.341Z,26.87
2018-02-17T05:59:16.879Z,23.42
2018-02-17T06:01:45.248Z,27.55
2018-02-17T06:04:13.562Z,25.67
2018-02-17T06:06:41.471Z,26.25
2018-02-17T06:09:09.102Z,27.67
2018-02-17T06:11:37.026Z,27.60
2018-02-17T06:14:05.251Z,28.05
2018-02-17T06:16:32.855Z,26.35
2018-02-17T06:19:01.209Z,30.75
2018-02-17T06:21:29.566Z,30.45
2018-02-17T06:23:57.116Z,30.10
2018-02-17T06:26:25.638Z,33.20
2018-02-17T06:28:53.215Z,31.70
2018-02-17T06:31:20.972Z,31.30
2018-02-17T06:33:49.146Z,30.45
2018-02-17T06:36:17.498Z,35.33
2018-02-17T06:38:46.822Z,26.30
2018-02-17T06:41:14.431Z,36.42
2018-02-17T06:43:42.733Z,41.33
2018-02-17T06:46:10.369Z,41.63
2018-02-17T06:48:37.910Z,37.05
2018-02-17T06:51:06.590Z,36.10
2018-02-17T06:53:34.851Z,37.70
2018-02-17T06:56:02.422Z,37.55
2018-02-17T06:58:30.357Z,28.50
2018-02-17T07:00:57.929Z,38.63
2018-02-17T07:03:26.543Z,38.80
2018-02-17T07:05:54.138Z,38.28
2018-02-17T07:08:21.795Z,37.13
2018-02-17T07:10:50.215Z,37.45
2018-02-17T07:13:17.770Z,39.22
2018-02-17T07:15:45.988Z,36.20
2018-02-17T07:18:14.482Z,33.13
2018-02-17T07:20:42.045Z,39.30
2018-02-17T07:23:09.812Z,40.12
2018-02-17T07:25:38.121Z,32.35
2018-02-17T07:28:06.525Z,31.75
2018-02-17T07:30:35.405Z,36.17
2018-02-17T07:33:03.795Z,36.22
2018-02-17T07:35:31.339Z,36.78
2018-02-17T07:37:58.931Z,41.10
2018-02-17T07:40:26.630Z,37.65
2018-02-17T07:42:54.286Z,40.08
2018-02-17T07:45:21.844Z,26.20
2018-02-17T07:47:49.441Z,38.95
2018-02-17T07:50:17.359Z,37.95
2018-02-17T07:52:44.957Z,38.90
2018-02-17T07:55:12.662Z,40.83
2018-02-17T07:57:40.312Z,35.03
2018-02-17T08:00:07.873Z,37.53
2018-02-17T08:02:35.910Z,36.33
2018-02-17T08:05:03.521Z,33.05
2018-02-17T08:07:31.213Z,33.80
2018-02-17T08:09:58.758Z,31.20
2018-02-17T08:12:26.468Z,27.95
2018-02-17T08:14:54.842Z,30.58
2018-02-17T08:17:23.193Z,21.25
2018-02-17T08:19:51.577Z,31.48
2018-02-17T08:22:19.126Z,31.20
2018-02-17T08:24:47.212Z,26.10
2018-02-17T08:27:14.768Z,31.20
2018-02-17T08:29:42.432Z,26.65
2018-02-17T08:32:10.798Z,25.02
2018-02-17T08:34:39.115Z,18.87
2018-02-17T08:37:07.999Z,22.90
2018-02-17T08:39:37.122Z,26.33
2018-02-17T08:42:05.487Z,20.92
2018-02-17T08:44:33.080Z,18.90
2018-02-17T08:47:01.627Z,17.08
2018-02-17T08:49:29.212Z,19.60
2018-02-17T08:51:57.615Z,20.77
2018-02-17T08:54:25.321Z,20.15
2018-02-17T08:56:53.648Z,21.65
2018-02-17T08:59:21.425Z,17.10
2018-02-17T09:01:49.844Z,18.12
2018-02-17T09:04:17.477Z,17.37
2018-02-17T09:06:45.095Z,16.12
2018-02-17T09:09:13.463Z,12.90
2018-02-17T09:11:42.281Z,14.65
2018-02-17T09:14:10.921Z,15.35
2018-02-17T09:16:38.708Z,15.75
2018-02-17T09:19:07.903Z,13.07
2018-02-17T09:21:36.344Z,14.65
2018-02-17T09:24:03.908Z,12.20
2018-02-17T09:26:32.294Z,13.10
2018-02-17T09:29:01.912Z,14.05
2018-02-17T09:31:29.604Z,13.07
2018-02-17T09:33:57.168Z,14.73
2018-02-17T09:36:25.539Z,15.68
2018-02-17T09:38:53.131Z,16.35
2018-02-17T09:41:20.966Z,14.50
2018-02-17T09:43:48.595Z,11.55
2018-02-17T09:46:16.142Z,10.93
2018-02-17T09:48:43.726Z,13.40
2018-02-17T09:51:11.360Z,15.23
2018-02-17T09:53:39.885Z,12.80
2018-02-17T09:56:08.303Z,12.55
2018-02-17T09:58:36.887Z,14.45
2018-02-17T10:01:05.099Z,12.50
2018-02-17T10:03:32.699Z,12.52
2018-02-17T10:06:00.339Z,13.40
2018-02-17T10:08:29.126Z,13.30
2018-02-17T10:10:57.430Z,13.00
2018-02-17T10:13:25.095Z,13.55
2018-02-17T10:15:52.658Z,13.62
2018-02-17T10:18:20.225Z,11.75
2018-02-17T10:20:47.860Z,11.80
2018-02-17T10:23:16.209Z,11.43
2018-02-17T10:25:44.609Z,11.20
2018-02-17T10:28:12.331Z,9.60
2018-02-17T10:30:40.709Z,10.57
2018-02-17T10:33:08.277Z,9.80
2018-02-17T10:35:38.099Z,9.23
2018-02-17T10:38:06.084Z,9.40
2018-02-17T10:40:33.733Z,9.20
2018-02-17T10:43:01.337Z,9.73
2018-02-17T10:45:29.250Z,10.15
2018-02-17T10:47:57.885Z,8.48
2018-02-17T10:50:25.550Z,8.30
2018-02-17T10:52:53.169Z,8.77
2018-02-17T10:55:20.756Z,8.55
2018-02-17T10:57:48.366Z,7.60
2018-02-17T11:00:16.937Z,8.50
2018-02-17T11:02:45.550Z,8.00
2018-02-17T11:05:20.855Z,6.32
2018-02-17T11:07:49.400Z,7.87
2018-02-17T11:10:17.008Z,8.52
2018-02-17T11:12:54.610Z,8.20
2018-02-17T11:15:22.482Z,8.45
2018-02-17T11:17:50.154Z,7.90
2018-02-17T11:20:17.807Z,7.30
2018-02-17T11:22:45.528Z,9.02
2018-02-17T11:25:13.883Z,8.27
2018-02-17T11:27:41.512Z,9.18
2018-02-17T11:30:28.434Z,7.80
2018-02-17T11:32:56.341Z,9.10
2018-02-17T11:35:24.790Z,8.38
2018-02-17T11:37:52.401Z,9.95
2018-02-17T11:40:20.024Z,11.88
2018-02-17T11:42:47.673Z,11.60
2018-02-17T11:45:15.556Z,11.20
2018-02-17T11:47:43.374Z,10.15
2018-02-17T11:50:11.161Z,13.57
2018-02-17T11:52:38.781Z,13.07
2018-02-17T11:55:06.352Z,13.82
2018-02-17T11:57:34.309Z,12.23
2018-02-17T12:00:02.344Z,14.45
2018-02-17T12:02:30.729Z,14.38
2018-02-17T12:04:59.163Z,14.93
2018-02-17T12:07:26.861Z,14.98
2018-02-17T12:09:55.349Z,16.30
2018-02-17T12:12:23.273Z,15.35
2018-02-17T12:14:51.170Z,17.48
2018-02-17T12:17:18.232Z,14.73
2018-02-17T12:20:05.742Z,16.83
2018-02-17T12:22:34.421Z,17.83
2018-02-17T12:25:02.835Z,16.75
2018-02-17T12:27:30.620Z,16.42
2018-02-17T12:29:58.368Z,15.65
2018-02-17T12:32:25.948Z,14.18
2018-02-17T12:34:53.531Z,16.83
2018-02-17T12:40:09.741Z,14.80
2018-02-17T12:42:38.091Z,16.98
2018-02-17T12:47:59.203Z,15.27
2018-02-17T12:50:39.901Z,16.23
2018-02-17T12:53:07.579Z,16.60
2018-02-17T12:55:36.096Z,18.75
2018-02-17T12:58:23.188Z,16.52
2018-02-17T13:00:50.770Z,17.27
2018-02-17T13:03:18.853Z,18.00
2018-02-17T13:05:46.801Z,17.23
2018-02-17T13:08:14.354Z,18.77
2018-02-17T13:10:42.669Z,18.02
2018-02-17T13:13:10.321Z,18.00
2018-02-17T13:15:38.100Z,18.80
2018-02-17T13:18:05.848Z,18.48
2018-02-17T13:20:33.542Z,17.77
2018-02-17T13:23:01.289Z,17.52
2018-02-17T13:25:29.039Z,18.92
2018-02-17T13:27:56.599Z,20.52
2018-02-17T13:30:24.198Z,15.85
2018-02-17T13:32:51.754Z,13.10
2018-02-17T13:35:19.346Z,15.60
2018-02-17T13:37:48.942Z,14.50
2018-02-17T13:40:18.240Z,14.73
2018-02-17T13:42:46.595Z,14.65
2018-02-17T13:45:14.179Z,14.30
2018-02-17T13:47:42.705Z,15.40
2018-02-17T13:50:10.369Z,14.80
2018-02-17T13:52:38.505Z,15.30
2018-02-17T13:55:06.138Z,15.00
2018-02-17T13:57:38.391Z,15.90
2018-02-17T14:00:06.761Z,16.10
2018-02-17T14:02:35.844Z,16.58
2018-02-17T14:05:03.430Z,15.60
2018-02-17T14:07:31.069Z,14.02
2018-02-17T14:09:59.437Z,16.17
2018-02-17T14:12:28.000Z,16.48
2018-02-17T14:14:56.562Z,18.85
2018-02-17T14:17:24.886Z,17.02
2018-02-17T14:19:52.794Z,18.37
2018-02-17T14:22:20.454Z,18.10
2018-02-17T14:24:48.186Z,19.05
2018-02-17T14:27:15.738Z,20.10
2018-02-17T14:29:44.048Z,21.27
2018-02-17T14:32:12.426Z,18.58
2018-02-17T14:34:41.807Z,18.55
2018-02-17T14:37:09.521Z,19.95
2018-02-17T14:39:37.099Z,20.95
2018-02-17T14:42:04.788Z,18.65
2018-02-17T14:44:32.464Z,20.33
2018-02-17T14:47:00.126Z,21.12
2018-02-17T14:49:28.016Z,19.62
2018-02-17T14:51:55.665Z,19.17
2018-02-17T14:54:24.073Z,18.70
2018-02-17T14:56:51.704Z,18.30
2018-02-17T14:59:20.173Z,20.35
2018-02-17T15:01:48.841Z,18.50
2018-02-17T15:04:16.421Z,20.88
2018-02-17T15:06:44.773Z,19.92
2018-02-17T15:09:12.356Z,19.90
2018-02-17T15:11:40.783Z,21.58
2018-02-17T15:14:08.435Z,19.52
2018-02-17T15:16:36.085Z,20.17
2018-02-17T15:19:03.656Z,18.02
2018-02-17T15:21:31.763Z,18.42
2018-02-17T15:23:59.376Z,20.45
2018-02-17T15:26:27.183Z,21.23
2018-02-17T15:28:55.514Z,18.02
2018-02-17T15:31:23.116Z,16.35
2018-02-17T15:33:50.981Z,15.80
2018-02-17T15:36:18.655Z,14.05
2018-02-17T15:38:47.363Z,18.67
2018-02-17T15:41:14.907Z,16.00
2018-02-17T15:43:43.224Z,15.82
2018-02-17T15:46:10.942Z,14.90
2018-02-17T15:48:38.563Z,14.02
2018-02-17T15:51:06.227Z,15.38
2018-02-17T15:53:33.895Z,15.18
2018-02-17T15:56:01.538Z,13.18
2018-02-17T15:58:30.214Z,16.75
2018-02-17T16:00:58.190Z,13.98
2018-02-17T16:03:25.818Z,14.80
2018-02-17T16:05:53.395Z,13.55
2018-02-17T16:08:20.949Z,16.40
2018-02-17T16:10:48.940Z,16.60
2018-02-17T16:13:17.420Z,12.35
2018-02-17T16:15:44.969Z,14.80
2018-02-17T16:18:13.028Z,13.00
2018-02-17T16:20:40.607Z,11.68
2018-02-17T16:23:08.214Z,13.80
2018-02-17T16:25:35.893Z,14.43
2018-02-17T16:28:03.485Z,14.75
2018-02-17T16:30:31.087Z,16.52
2018-02-17T16:32:59.414Z,14.60
2018-02-17T16:35:27.279Z,19.98
2018-02-17T16:37:55.045Z,15.15
2018-02-17T16:40:22.634Z,15.60
2018-02-17T16:42:50.227Z,16.15
2018-02-17T16:45:18.594Z,15.07
2018-02-17T16:47:47.033Z,15.38
2018-02-17T16:50:14.612Z,14.68
2018-02-17T16:52:42.442Z,16.17
2018-02-17T16:55:10.134Z,17.25
2018-02-17T16:57:37.925Z,15.73
2018-02-17T17:00:06.271Z,16.45
2018-02-17T17:02:33.899Z,19.92
2018-02-17T17:05:01.539Z,18.02
2018-02-17T17:07:29.174Z,20.23
2018-02-17T17:09:57.516Z,18.10
2018-02-17T17:12:25.125Z,18.33
2018-02-17T17:14:52.735Z,25.00
2018-02-17T17:17:21.093Z,35.08
2018-02-17T17:19:49.662Z,17.42
2018-02-17T17:22:17.547Z,20.42
2018-02-17T17:24:45.141Z,20.12
2018-02-17T17:27:12.782Z,19.77
2018-02-17T17:29:41.866Z,18.10
2018-02-17T17:32:09.722Z,19.40
2018-02-17T17:34:37.396Z,20.45
2018-02-17T17:37:04.947Z,17.10
2018-02-17T17:39:34.451Z,21.85
2018-02-17T17:42:02.045Z,19.35
2018-02-17T17:44:30.460Z,20.83
2018-02-17T17:46:58.007Z,19.25
2018-02-17T17:49:26.621Z,20.08
2018-02-17T17:51:55.363Z,18.05
2018-02-17T17:54:23.840Z,21.80
2018-02-17T17:56:51.508Z,21.08
2018-02-17T17:59:19.934Z,20.65
2018-02-17T18:01:47.578Z,21.95
2018-02-17T18:04:15.167Z,22.15
2018-02-17T18:06:42.975Z,22.80
2018-02-17T18:09:10.663Z,22.55
2018-02-17T18:11:38.238Z,22.73
2018-02-17T18:14:05.866Z,24.70
2018-02-17T18:16:33.434Z,24.60
2018-02-17T18:19:01.146Z,24.65
2018-02-17T18:21:28.924Z,24.50
2018-02-17T18:23:57.345Z,23.67
2018-02-17T18:26:24.966Z,23.20
2018-02-17T18:28:55.374Z,23.30
2018-02-17T18:31:23.179Z,25.20
2018-02-17T18:33:50.873Z,25.58
2018-02-17T18:36:18.646Z,24.02
2018-02-17T18:38:46.326Z,24.98
2018-02-17T18:41:13.928Z,24.25
2018-02-17T18:43:41.618Z,24.65
2018-02-17T18:46:11.099Z,24.15
2018-02-17T18:48:38.693Z,22.95
2018-02-17T18:51:06.281Z,26.77
2018-02-17T18:53:34.605Z,26.35
2018-02-17T18:56:02.178Z,25.65
2018-02-17T18:58:30.803Z,29.65
2018-02-17T19:00:59.303Z,30.77
2018-02-17T19:03:26.895Z,31.08
2018-02-17T19:05:54.440Z,33.17
2018-02-17T19:08:22.256Z,31.83
2018-02-17T19:10:50.588Z,30.80
2018-02-17T19:13:18.728Z,30.50
2018-02-17T19:15:46.663Z,30.25
2018-02-17T19:18:14.342Z,30.60
2018-02-17T19:20:42.692Z,28.92
2018-02-17T19:23:11.096Z,31.42
2018-02-17T19:25:38.717Z,29.48
2018-02-17T19:28:06.643Z,30.20
2018-02-17T19:30:34.271Z,30.65
2018-02-17T19:33:02.156Z,30.42
2018-02-17T19:35:29.825Z,30.83
2018-02-17T19:37:58.914Z,31.95
2018-02-17T19:40:26.611Z,31.25
2018-02-17T19:42:54.396Z,31.33
2018-02-17T19:45:22.112Z,33.70
2018-02-17T19:47:50.014Z,32.45
2018-02-17T19:50:17.923Z,29.33
2018-02-17T19:52:46.304Z,31.20
2018-02-17T19:55:13.984Z,27.95
2018-02-17T19:57:41.629Z,31.05
2018-02-17T20:00:10.217Z,29.58
2018-02-17T20:02:38.723Z,31.20
2018-02-17T20:05:08.405Z,30.92
2018-02-17T20:07:35.972Z,31.52
2018-02-17T20:10:03.561Z,28.48
2018-02-17T20:12:31.260Z,30.90
2018-02-17T20:14:59.588Z,32.92
2018-02-17T20:17:28.392Z,29.63
2018-02-17T20:19:56.016Z,30.83
2018-02-17T20:22:23.723Z,27.40
2018-02-17T20:24:52.243Z,27.33
2018-02-17T20:27:19.824Z,29.23
2018-02-17T20:29:47.549Z,28.33
2018-02-17T20:32:15.995Z,28.38
2018-02-17T20:34:43.652Z,28.27
2018-02-17T20:37:11.267Z,29.48
2018-02-17T20:39:38.959Z,29.08
2018-02-17T20:42:06.724Z,30.60
2018-02-17T20:44:34.357Z,28.70
2018-02-17T20:47:02.020Z,28.52
2018-02-17T20:49:29.679Z,29.27
2018-02-17T20:51:57.295Z,30.40
2018-02-17T20:54:24.961Z,30.90
2018-02-17T20:56:55.428Z,31.17
2018-02-17T20:59:23.100Z,32.42
2018-02-17T21:01:55.841Z,30.70
2018-02-17T21:04:24.192Z,28.02
2018-02-17T21:06:52.074Z,31.60
2018-02-17T21:09:24.040Z,31.00
2018-02-17T21:11:52.009Z,28.27
2018-02-17T21:14:21.074Z,29.83
2018-02-17T21:16:51.118Z,28.30
2018-02-17T21:19:18.946Z,29.87
2018-02-17T21:21:46.600Z,29.45
2018-02-17T21:24:14.191Z,28.25
2018-02-17T21:26:41.832Z,27.20
2018-02-17T21:29:09.852Z,28.02
2018-02-17T21:31:37.455Z,30.08
2018-02-17T21:34:05.069Z,28.92
2018-02-17T21:36:33.711Z,28.77
2018-02-17T21:39:01.984Z,28.02
2018-02-17T21:41:30.579Z,28.90
2018-02-17T21:43:58.185Z,27.90
2018-02-17T21:46:25.926Z,26.58
2018-02-17T21:48:53.538Z,26.75
2018-02-17T21:51:21.251Z,25.92
2018-02-17T21:53:50.557Z,26.17
2018-02-17T21:56:18.169Z,27.35
2018-02-17T21:58:46.209Z,26.70
2018-02-17T22:01:13.788Z,28.30
2018-02-17T22:03:42.190Z,26.42
2018-02-17T22:06:09.859Z,27.20
2018-02-17T22:08:38.174Z,25.45
2018-02-17T22:11:06.125Z,28.05
2018-02-17T22:13:33.793Z,27.75
2018-02-17T22:16:01.864Z,24.85
2018-02-17T22:18:29.479Z,24.42
2018-02-17T22:20:57.075Z,25.58
2018-02-17T22:23:24.648Z,25.62
2018-02-17T22:25:52.264Z,23.60
2018-02-17T22:28:19.912Z,25.73
2018-02-17T22:30:47.508Z,25.02
2018-02-17T22:33:15.215Z,27.58
2018-02-17T22:35:42.951Z,27.15
2018-02-17T22:38:10.629Z,25.85
2018-02-17T22:40:38.260Z,27.60
2018-02-17T22:43:06.265Z,27.00
2018-02-17T22:45:33.796Z,28.40
2018-02-17T22:48:01.334Z,27.00
2018-02-17T22:50:29.690Z,26.50
2018-02-17T22:52:57.254Z,26.52
2018-02-17T22:55:25.606Z,28.20
2018-02-17T22:57:53.290Z,26.98
2018-02-17T23:00:29.714Z,28.77
2018-02-17T23:02:57.291Z,28.17
2018-02-17T23:05:24.982Z,28.20
2018-02-17T23:07:54.295Z,29.35
2018-02-17T23:10:23.679Z,26.67
2018-02-17T23:12:52.309Z,27.90
2018-02-17T23:15:19.858Z,27.67
2018-02-17T23:17:51.496Z,27.37
2018-02-17T23:20:19.832Z,29.08
2018-02-17T23:22:47.425Z,28.48
2018-02-17T23:25:15.756Z,30.27
2018-02-17T23:27:45.448Z,29.45
2018-02-17T23:30:13.012Z,30.00
2018-02-17T23:32:41.392Z,30.23
2018-02-17T23:35:08.938Z,28.20
2018-02-17T23:37:36.538Z,28.27
2018-02-17T23:40:04.379Z,28.20
2018-02-17T23:42:31.939Z,27.60
2018-02-17T23:44:59.577Z,29.30
2018-02-17T23:47:27.170Z,29.05
2018-02-17T23:49:55.089Z,29.37
2018-02-17T23:52:22.642Z,29.60
2018-02-17T23:54:50.989Z,30.27
2018-02-17T23:57:19.505Z,31.60
2018-02-17T23:59:47.068Z,30.35
